| time (UTC) | temp F | wind direction | speed MPH | gust MPH | rain 1hr in | rain 24hr in | rain mn in | humidity % | barometer mb |
| 20260831100824 | 69 | 5 | 0.0 | 3.0 | 0.00 | 0.16 | 0.10 | 92 | 1019.2 |
| 20260831100337 | 69 | 5 | 0.0 | 3.0 | 0.00 | 0.16 | 0.10 | 92 | 1019.1 |
| 20260831095847 | 69 | 5 | 1.0 | 3.0 | 0.00 | 0.16 | 0.10 | 92 | 1019.0 |
| 20260831095318 | 69 | 5 | 1.0 | 5.0 | 0.01 | 0.16 | 0.10 | 92 | 1019.0 |
| 20260831094832 | 69 | 327 | 2.0 | 7.0 | 0.01 | 0.16 | 0.10 | 92 | 1018.8 |
| 20260831094323 | 69 | 342 | 3.0 | 5.0 | 0.01 | 0.16 | 0.10 | 92 | 1018.8 |
| 20260831093838 | 69 | 15 | 3.0 | 5.0 | 0.01 | 0.16 | 0.10 | 92 | 1018.7 |
| 20260831093332 | 70 | 355 | 2.0 | 4.0 | 0.01 | 0.16 | 0.10 | 92 | 1018.7 |
| 20260831092824 | 70 | 325 | 2.0 | 4.0 | 0.01 | 0.16 | 0.10 | 92 | 1018.7 |
| 20260831092354 | 70 | 350 | 1.0 | 3.0 | 0.01 | 0.16 | 0.10 | 92 | 1018.7 |
| 20260831091826 | 70 | 345 | 2.0 | 3.0 | 0.01 | 0.16 | 0.10 | 92 | 1018.7 |
| 20260831091318 | 70 | 355 | 1.0 | 4.0 | 0.01 | 0.16 | 0.10 | 92 | 1018.7 |
| 20260831090829 | 70 | 331 | 2.0 | 4.0 | 0.01 | 0.16 | 0.10 | 92 | 1018.7 |
| 20260831090321 | 70 | 336 | 0.0 | 4.0 | 0.01 | 0.16 | 0.10 | 92 | 1018.6 |
| 20260831085832 | 70 | 320 | 1.0 | 4.0 | 0.01 | 0.16 | 0.10 | 92 | 1018.7 |
| 20260831085323 | 70 | 331 | 2.0 | 4.0 | 0.00 | 0.15 | 0.09 | 92 | 1018.6 |
| 20260831084818 | 70 | 289 | 1.0 | 1.0 | 0.00 | 0.15 | 0.09 | 92 | 1018.7 |
| 20260831084331 | 70 | 289 | 0.0 | 2.0 | 0.00 | 0.15 | 0.09 | 92 | 1018.7 |
| 20260831083823 | 70 | 289 | 1.0 | 3.0 | 0.00 | 0.15 | 0.09 | 92 | 1018.7 |
| 20260831083317 | 70 | 289 | 1.0 | 3.0 | 0.00 | 0.15 | 0.09 | 92 | 1018.8 |
| 20260831082829 | 71 | 275 | 2.0 | 3.0 | 0.00 | 0.15 | 0.09 | 92 | 1018.8 |
| 20260831082320 | 71 | 275 | 1.0 | 3.0 | 0.00 | 0.15 | 0.09 | 92 | 1018.8 |
| 20260831081831 | 71 | 275 | 1.0 | 2.0 | 0.00 | 0.15 | 0.09 | 92 | 1018.8 |
| 20260831080833 | 71 | 277 | 2.0 | 3.0 | 0.00 | 0.15 | 0.09 | 92 | 1018.8 |
| 20260831080329 | 71 | 274 | 0.0 | 2.0 | 0.00 | 0.15 | 0.09 | 92 | 1018.8 |
| 20260831075840 | 71 | 274 | 0.0 | 2.0 | 0.00 | 0.15 | 0.09 | 92 | 1018.8 |
| 20260831075350 | 71 | 274 | 1.0 | 2.0 | 0.00 | 0.15 | 0.09 | 92 | 1018.8 |
| 20260831074844 | 71 | 274 | 1.0 | 2.0 | 0.00 | 0.15 | 0.09 | 92 | 1018.8 |
| 20260831074314 | 71 | 274 | 1.0 | 2.0 | 0.00 | 0.15 | 0.09 | 92 | 1018.9 |
| 20260831073829 | 71 | 274 | 0.0 | 1.0 | 0.00 | 0.15 | 0.09 | 92 | 1018.9 |
| 20260831073320 | 71 | 274 | 0.0 | 2.0 | 0.00 | 0.15 | 0.09 | 92 | 1018.9 |
| 20260831072832 | 71 | 274 | 1.0 | 2.0 | 0.00 | 0.15 | 0.09 | 92 | 1018.9 |
| 20260831072323 | 71 | 274 | 1.0 | 2.0 | 0.00 | 0.15 | 0.09 | 92 | 1018.9 |
| 20260831071815 | 71 | 274 | 0.0 | 2.0 | 0.00 | 0.15 | 0.09 | 92 | 1018.9 |
| 20260831071348 | 71 | 274 | 1.0 | 3.0 | 0.00 | 0.15 | 0.09 | 92 | 1018.9 |
| 20260831070842 | 70 | 274 | 1.0 | 3.0 | 0.00 | 0.15 | 0.09 | 92 | 1018.9 |
| 20260831070333 | 70 | 265 | 1.0 | 3.0 | 0.00 | 0.15 | 0.09 | 91 | 1018.8 |
| 20260831065845 | 70 | 248 | 1.0 | 2.0 | 0.00 | 0.15 | 0.09 | 91 | 1019.0 |
| 20260831065355 | 70 | 248 | 0.0 | 1.0 | 0.00 | 0.15 | 0.09 | 91 | 1019.1 |
| 20260831064825 | 70 | 248 | 0.0 | 1.0 | 0.00 | 0.15 | 0.09 | 91 | 1019.0 |
| 20260831064336 | 70 | 248 | 0.0 | 1.0 | 0.00 | 0.15 | 0.09 | 91 | 1019.1 |
| 20260831063828 | 71 | 248 | 0.0 | 0.0 | 0.00 | 0.15 | 0.09 | 91 | 1019.0 |
| 20260831063320 | 71 | 248 | 0.0 | 2.0 | 0.00 | 0.15 | 0.09 | 91 | 1019.2 |
| 20260831062832 | 71 | 248 | 0.0 | 2.0 | 0.00 | 0.15 | 0.09 | 91 | 1019.2 |
| 20260831062323 | 71 | 248 | 1.0 | 2.0 | 0.00 | 0.15 | 0.09 | 91 | 1019.1 |
| 20260831061818 | 71 | 248 | 0.0 | 2.0 | 0.00 | 0.15 | 0.09 | 91 | 1019.0 |
| 20260831061332 | 71 | 248 | 1.0 | 2.0 | 0.00 | 0.15 | 0.09 | 91 | 1019.0 |
| 20260831060824 | 71 | 248 | 0.0 | 2.0 | 0.00 | 0.15 | 0.09 | 91 | 1019.0 |
| 20260831060316 | 71 | 248 | 0.0 | 3.0 | 0.00 | 0.15 | 0.09 | 91 | 1018.9 |
| 20260831055849 | 71 | 248 | 2.0 | 3.0 | 0.00 | 0.15 | 0.09 | 91 | 1019.0 |
| 20260831055340 | 71 | 281 | 0.0 | 2.0 | 0.00 | 0.15 | 0.09 | 91 | 1019.1 |
| 20260831054833 | 71 | 281 | 0.0 | 3.0 | 0.00 | 0.15 | 0.09 | 91 | 1019.3 |
| 20260831054324 | 71 | 281 | 1.0 | 3.0 | 0.00 | 0.15 | 0.09 | 91 | 1019.3 |
| 20260831053815 | 71 | 267 | 2.0 | 3.0 | 0.00 | 0.15 | 0.09 | 91 | 1019.2 |
| 20260831053329 | 71 | 355 | 0.0 | 1.0 | 0.00 | 0.15 | 0.09 | 90 | 1019.3 |
| 20260831052844 | 71 | 355 | 0.0 | 1.0 | 0.00 | 0.15 | 0.09 | 90 | 1019.2 |
| 20260831052314 | 71 | 355 | 0.0 | 4.0 | 0.00 | 0.15 | 0.09 | 90 | 1019.1 |
| 20260831051826 | 71 | 355 | 1.0 | 5.0 | 0.00 | 0.15 | 0.09 | 90 | 1019.1 |
| 20260831051320 | 71 | 355 | 2.0 | 5.0 | 0.01 | 0.15 | 0.09 | 90 | 1019.2 |
| 20260831050832 | 71 | 277 | 1.0 | 3.0 | 0.01 | 0.15 | 0.09 | 90 | 1019.1 |
| 20260831050323 | 71 | 257 | 0.0 | 1.0 | 0.03 | 0.15 | 0.09 | 90 | 1019.2 |
| 20260831045814 | 71 | 257 | 0.0 | 1.0 | 0.04 | 0.15 | 0.09 | 90 | 1019.1 |
| 20260831045345 | 71 | 257 | 0.0 | 4.0 | 0.06 | 0.15 | 0.09 | 89 | 1019.1 |
| 20260831044816 | 71 | 286 | 1.0 | 5.0 | 0.07 | 0.15 | 0.09 | 89 | 1019.2 |
| 20260831044315 | 72 | 252 | 3.0 | 5.0 | 0.08 | 0.15 | 0.09 | 89 | 1019.3 |
| 20260831043846 | 72 | 191 | 2.0 | 5.0 | 0.09 | 0.15 | 0.09 | 89 | 1019.2 |
| 20260831043337 | 72 | 196 | 2.0 | 5.0 | 0.10 | 0.15 | 0.09 | 89 | 1019.2 |
| 20260831042826 | 72 | 195 | 1.0 | 5.0 | 0.12 | 0.15 | 0.09 | 89 | 1019.4 |
| 20260831042318 | 72 | 281 | 2.0 | 5.0 | 0.13 | 0.15 | 0.09 | 89 | 1019.7 |
| 20260831041829 | 73 | 251 | 2.0 | 7.0 | 0.14 | 0.15 | 0.09 | 89 | 1019.7 |
| 20260831041341 | 73 | 323 | 3.0 | 7.0 | 0.13 | 0.14 | 0.08 | 88 | 1019.8 |
| 20260831040833 | 73 | 234 | 3.0 | 6.0 | 0.13 | 0.14 | 0.08 | 88 | 1019.6 |
| 20260831040344 | 74 | 269 | 3.0 | 6.0 | 0.11 | 0.12 | 0.06 | 88 | 1019.5 |
| 20260831035815 | 74 | 286 | 1.0 | 8.0 | 0.11 | 0.11 | 0.05 | 88 | 1019.6 |
| 20260831035327 | 74 | 240 | 4.0 | 11.0 | 0.09 | 0.09 | 0.03 | 88 | 1019.4 |
| 20260831034823 | 74 | 260 | 6.0 | 11.0 | 0.08 | 0.08 | 0.02 | 88 | 1019.3 |
| 20260831034317 | 74 | 242 | 4.0 | 7.0 | 0.07 | 0.07 | 0.01 | 87 | 1019.3 |
| 20260831033829 | 74 | 213 | 4.0 | 6.0 | 0.06 | 0.06 | 0.06 | 87 | 1019.3 |
| 20260831033340 | 74 | 270 | 3.0 | 5.0 | 0.05 | 0.05 | 0.05 | 86 | 1019.3 |
| 20260831032831 | 74 | 238 | 1.0 | 5.0 | 0.03 | 0.03 | 0.03 | 86 | 1019.2 |
| 20260831032322 | 75 | 240 | 2.0 | 5.0 | 0.02 | 0.02 | 0.02 | 86 | 1019.0 |
| 20260831031833 | 76 | 270 | 2.0 | 5.0 | 0.01 | 0.01 | 0.01 | 87 | 1019.1 |
| 20260831031324 | 76 | 270 | 2.0 | 4.0 | 0.01 | 0.01 | 0.01 | 87 | 1018.9 |
| 20260831030815 | 76 | 236 | 2.0 | 6.0 | 0.01 | 0.01 | 0.01 | 87 | 1018.9 |
| 20260831030330 | 76 | 229 | 3.0 | 6.0 | 0.01 | 0.01 | 0.01 | 86 | 1018.8 |
| 20260831025821 | 76 | 190 | 1.0 | 5.0 | 0.00 | 0.00 | 0.00 | 86 | 1018.7 |
| 20260831025332 | 76 | 248 | 1.0 | 3.0 | 0.00 | 0.00 | 0.00 | 86 | 1018.7 |
| 20260831024824 | 76 | 257 | 1.0 | 3.0 | 0.00 | 0.00 | 0.00 | 86 | 1018.8 |
| 20260831024315 | 77 | 277 | 1.0 | 3.0 | 0.00 | 0.00 | 0.00 | 86 | 1018.9 |
| 20260831023847 | 77 | 234 | 1.0 | 4.0 | 0.00 | 0.00 | 0.00 | 85 | 1019.0 |
| 20260831023320 | 77 | 245 | 1.0 | 3.0 | 0.00 | 0.00 | 0.00 | 85 | 1019.0 |
| 20260831022811 | 77 | 257 | 1.0 | 3.0 | 0.00 | 0.00 | 0.00 | 85 | 1019.0 |
| 20260831022325 | 77 | 201 | 1.0 | 5.0 | 0.00 | 0.00 | 0.00 | 84 | 1019.0 |
| 20260831021821 | 77 | 196 | 1.0 | 4.0 | 0.00 | 0.00 | 0.00 | 84 | 1019.1 |
| 20260831021332 | 77 | 225 | 2.0 | 4.0 | 0.00 | 0.00 | 0.00 | 84 | 1019.2 |
| 20260831020823 | 77 | 201 | 1.0 | 3.0 | 0.00 | 0.00 | 0.00 | 84 | 1019.2 |
| 20260831020314 | 77 | 202 | 1.0 | 6.0 | 0.00 | 0.00 | 0.00 | 83 | 1019.2 |
| 20260831015829 | 77 | 180 | 2.0 | 9.0 | 0.00 | 0.00 | 0.00 | 83 | 1019.3 |
| 20260831015340 | 77 | 228 | 2.0 | 9.0 | 0.00 | 0.00 | 0.00 | 83 | 1019.3 |
| 20260831014831 | 77 | 238 | 2.0 | 5.0 | 0.00 | 0.00 | 0.00 | 83 | 1019.3 |
| 20260831014345 | 77 | 263 | 1.0 | 2.0 | 0.00 | 0.00 | 0.00 | 83 | 1019.2 |
| 20260831013816 | 77 | 174 | 1.0 | 5.0 | 0.00 | 0.00 | 0.00 | 83 | 1019.1 |
| 20260831013314 | 77 | 195 | 2.0 | 7.0 | 0.00 | 0.00 | 0.00 | 83 | 1019.2 |
| 20260831012826 | 77 | 200 | 3.0 | 7.0 | 0.00 | 0.00 | 0.00 | 83 | 1019.1 |
| 20260831012320 | 77 | 211 | 2.0 | 6.0 | 0.00 | 0.00 | 0.00 | 82 | 1019.1 |
| 20260831011832 | 78 | 236 | 1.0 | 7.0 | 0.00 | 0.00 | 0.00 | 82 | 1019.2 |
| 20260831011323 | 78 | 238 | 2.0 | 5.0 | 0.00 | 0.00 | 0.00 | 82 | 1019.1 |
| 20260831010815 | 78 | 184 | 2.0 | 7.0 | 0.00 | 0.00 | 0.00 | 82 | 1019.2 |
| 20260831010327 | 78 | 211 | 1.0 | 7.0 | 0.00 | 0.00 | 0.00 | 82 | 1019.1 |
| 20260831005318 | 78 | 279 | 2.0 | 9.0 | 0.00 | 0.00 | 0.00 | 81 | 1019.1 |
| 20260831004829 | 78 | 174 | 3.0 | 7.0 | 0.00 | 0.00 | 0.00 | 81 | 1019.0 |
| 20260831004321 | 78 | 144 | 3.0 | 7.0 | 0.00 | 0.00 | 0.00 | 81 | 1018.9 |
| 20260831003852 | 78 | 164 | 3.0 | 8.0 | 0.00 | 0.00 | 0.00 | 81 | 1018.9 |
| 20260831003323 | 78 | 225 | 2.0 | 7.0 | 0.00 | 0.00 | 0.00 | 81 | 1018.9 |
| 20260831002815 | 78 | 226 | 3.0 | 5.0 | 0.00 | 0.00 | 0.00 | 81 | 1018.7 |
| 20260831002346 | 78 | 250 | 1.0 | 5.0 | 0.00 | 0.00 | 0.00 | 81 | 1018.7 |
| 20260831001816 | 78 | 133 | 2.0 | 6.0 | 0.00 | 0.00 | 0.00 | 81 | 1018.7 |
| 20260831001327 | 78 | 218 | 2.0 | 8.0 | 0.00 | 0.00 | 0.00 | 81 | 1018.6 |
| 20260831000819 | 78 | 224 | 3.0 | 8.0 | 0.00 | 0.00 | 0.00 | 81 | 1018.6 |
| 20260831000318 | 78 | 209 | 3.0 | 9.0 | 0.00 | 0.00 | 0.00 | 82 | 1018.6 |
| 20260830235829 | 78 | 195 | 3.0 | 9.0 | 0.00 | 0.00 | 0.00 | 82 | 1018.6 |
| 20260830235321 | 78 | 200 | 3.0 | 6.0 | 0.00 | 0.00 | 0.00 | 82 | 1018.6 |
| 20260830234832 | 79 | 185 | 3.0 | 9.0 | 0.00 | 0.00 | 0.00 | 82 | 1018.6 |
| 20260830234324 | 79 | 204 | 3.0 | 9.0 | 0.00 | 0.00 | 0.00 | 82 | 1018.5 |
| 20260830233815 | 79 | 180 | 3.0 | 7.0 | 0.00 | 0.00 | 0.00 | 82 | 1018.5 |
| 20260830233326 | 79 | 183 | 4.0 | 7.0 | 0.00 | 0.00 | 0.00 | 82 | 1018.5 |
| 20260830232820 | 79 | 180 | 3.0 | 9.0 | 0.00 | 0.00 | 0.00 | 82 | 1018.5 |
| 20260830232315 | 79 | 223 | 4.0 | 11.0 | 0.00 | 0.00 | 0.00 | 82 | 1018.3 |
| 20260830231826 | 79 | 217 | 2.0 | 11.0 | 0.00 | 0.00 | 0.00 | 81 | 1018.2 |
| 20260830231317 | 79 | 223 | 3.0 | 11.0 | 0.00 | 0.00 | 0.00 | 81 | 1018.1 |
| 20260830230829 | 79 | 167 | 4.0 | 11.0 | 0.00 | 0.00 | 0.00 | 81 | 1018.3 |
| 20260830230319 | 79 | 145 | 3.0 | 9.0 | 0.00 | 0.00 | 0.00 | 81 | 1018.3 |
| 20260830225830 | 79 | 175 | 4.0 | 9.0 | 0.00 | 0.00 | 0.00 | 81 | 1018.3 |
| 20260830225342 | 79 | 215 | 4.0 | 9.0 | 0.00 | 0.00 | 0.00 | 81 | 1018.2 |
| 20260830224833 | 79 | 175 | 5.0 | 9.0 | 0.00 | 0.00 | 0.00 | 80 | 1018.2 |
| 20260830224324 | 80 | 210 | 3.0 | 12.0 | 0.00 | 0.00 | 0.00 | 80 | 1018.3 |
| 20260830223820 | 80 | 163 | 4.0 | 12.0 | 0.00 | 0.00 | 0.00 | 79 | 1018.4 |
| 20260830223314 | 80 | 181 | 3.0 | 14.0 | 0.00 | 0.00 | 0.00 | 79 | 1018.4 |
| 20260830222845 | 80 | 171 | 5.0 | 14.0 | 0.00 | 0.00 | 0.00 | 78 | 1018.3 |
| 20260830222315 | 80 | 196 | 4.0 | 10.0 | 0.00 | 0.00 | 0.00 | 79 | 1018.4 |
| 20260830221825 | 80 | 196 | 4.0 | 12.0 | 0.00 | 0.00 | 0.00 | 79 | 1018.4 |
| 20260830221317 | 80 | 194 | 5.0 | 12.0 | 0.00 | 0.00 | 0.00 | 79 | 1018.3 |
| 20260830220829 | 80 | 163 | 4.0 | 12.0 | 0.00 | 0.00 | 0.00 | 80 | 1018.1 |
| 20260830220344 | 80 | 193 | 5.0 | 11.0 | 0.00 | 0.00 | 0.00 | 80 | 1018.1 |
| 20260830215834 | 80 | 176 | 4.0 | 16.0 | 0.00 | 0.00 | 0.00 | 81 | 1018.2 |
| 20260830215329 | 79 | 219 | 6.0 | 16.0 | 0.00 | 0.00 | 0.00 | 80 | 1018.0 |
| 20260830214821 | 79 | 222 | 4.0 | 16.0 | 0.00 | 0.00 | 0.00 | 80 | 1017.9 |
| 20260830214332 | 79 | 227 | 4.0 | 16.0 | 0.00 | 0.00 | 0.00 | 80 | 1018.0 |
| 20260830213824 | 79 | 197 | 5.0 | 16.0 | 0.00 | 0.00 | 0.00 | 79 | 1018.1 |
| 20260830213316 | 79 | 146 | 5.0 | 13.0 | 0.00 | 0.00 | 0.00 | 79 | 1018.2 |
| 20260830212827 | 79 | 166 | 5.0 | 15.0 | 0.00 | 0.00 | 0.00 | 79 | 1018.3 |
| 20260830212317 | 79 | 178 | 5.0 | 15.0 | 0.00 | 0.00 | 0.00 | 78 | 1018.3 |
| 20260830211831 | 80 | 172 | 5.0 | 14.0 | 0.00 | 0.00 | 0.00 | 78 | 1018.3 |
| 20260830211327 | 80 | 205 | 4.0 | 16.0 | 0.00 | 0.00 | 0.00 | 77 | 1018.3 |
| 20260830210820 | 80 | 144 | 6.0 | 16.0 | 0.00 | 0.00 | 0.00 | 77 | 1018.3 |
| 20260830210332 | 80 | 198 | 4.0 | 15.0 | 0.00 | 0.00 | 0.00 | 77 | 1018.3 |
| 20260830205823 | 80 | 199 | 5.0 | 19.0 | 0.00 | 0.00 | 0.00 | 77 | 1018.4 |
| 20260830205314 | 80 | 159 | 6.0 | 19.0 | 0.00 | 0.00 | 0.00 | 77 | 1018.3 |
| 20260830204829 | 80 | 78 | 8.0 | 15.0 | 0.00 | 0.00 | 0.00 | 76 | 1018.4 |
| 20260830204340 | 81 | 171 | 4.0 | 14.0 | 0.00 | 0.00 | 0.00 | 76 | 1018.5 |
| 20260830203829 | 81 | 234 | 4.0 | 16.0 | 0.00 | 0.00 | 0.00 | 76 | 1018.5 |
| 20260830203321 | 81 | 167 | 7.0 | 16.0 | 0.00 | 0.00 | 0.00 | 75 | 1018.4 |
| 20260830202816 | 81 | 175 | 4.0 | 11.0 | 0.00 | 0.00 | 0.00 | 76 | 1018.5 |
| 20260830202327 | 81 | 130 | 5.0 | 12.0 | 0.00 | 0.00 | 0.00 | 75 | 1018.5 |
| 20260830201839 | 81 | 180 | 5.0 | 12.0 | 0.00 | 0.00 | 0.00 | 76 | 1018.5 |
| 20260830201329 | 80 | 102 | 4.0 | 9.0 | 0.00 | 0.00 | 0.00 | 76 | 1018.6 |
| 20260830200820 | 80 | 136 | 5.0 | 12.0 | 0.00 | 0.00 | 0.00 | 76 | 1018.7 |
| 20260830200330 | 80 | 169 | 5.0 | 12.0 | 0.00 | 0.00 | 0.00 | 76 | 1018.8 |
| 20260830195843 | 80 | 214 | 3.0 | 13.0 | 0.00 | 0.00 | 0.00 | 76 | 1019.0 |
| 20260830195313 | 80 | 173 | 5.0 | 12.0 | 0.00 | 0.00 | 0.00 | 75 | 1019.0 |
| 20260830194317 | 80 | 151 | 5.0 | 12.0 | 0.00 | 0.00 | 0.00 | 75 | 1019.1 |
| 20260830193829 | 80 | 227 | 4.0 | 12.0 | 0.00 | 0.00 | 0.00 | 75 | 1019.1 |
| 20260830193324 | 81 | 188 | 4.0 | 9.0 | 0.00 | 0.00 | 0.00 | 74 | 1019.1 |
| 20260830192815 | 81 | 185 | 3.0 | 9.0 | 0.00 | 0.00 | 0.00 | 74 | 1019.1 |
| 20260830192327 | 81 | 190 | 2.0 | 9.0 | 0.00 | 0.00 | 0.00 | 75 | 1019.2 |
| 20260830191818 | 80 | 202 | 2.0 | 9.0 | 0.00 | 0.00 | 0.00 | 75 | 1019.3 |
| 20260830191349 | 80 | 210 | 5.0 | 14.0 | 0.00 | 0.00 | 0.00 | 75 | 1019.3 |
| 20260830190819 | 80 | 129 | 5.0 | 14.0 | 0.00 | 0.00 | 0.00 | 75 | 1019.2 |
| 20260830190332 | 80 | 142 | 6.0 | 14.0 | 0.00 | 0.00 | 0.00 | 75 | 1019.3 |
| 20260830185843 | 80 | 194 | 6.0 | 14.0 | 0.00 | 0.00 | 0.00 | 74 | 1019.4 |
| 20260830185353 | 80 | 171 | 6.0 | 14.0 | 0.00 | 0.00 | 0.00 | 74 | 1019.5 |
| 20260830184824 | 80 | 141 | 6.0 | 13.0 | 0.00 | 0.00 | 0.00 | 73 | 1019.6 |
| 20260830184321 | 80 | 152 | 2.0 | 9.0 | 0.00 | 0.00 | 0.00 | 74 | 1019.7 |
| 20260830183816 | 80 | 194 | 5.0 | 10.0 | 0.00 | 0.00 | 0.00 | 74 | 1019.8 |
| 20260830183331 | 80 | 148 | 4.0 | 13.0 | 0.00 | 0.00 | 0.00 | 74 | 1019.8 |
| 20260830182821 | 80 | 170 | 5.0 | 13.0 | 0.00 | 0.00 | 0.00 | 73 | 1019.9 |
| 20260830182333 | 80 | 206 | 7.0 | 14.0 | 0.00 | 0.00 | 0.00 | 73 | 1020.0 |
| 20260830181825 | 80 | 192 | 6.0 | 14.0 | 0.00 | 0.00 | 0.00 | 73 | 1020.1 |
| 20260830181315 | 80 | 169 | 5.0 | 13.0 | 0.00 | 0.00 | 0.00 | 73 | 1020.2 |
| 20260830180321 | 81 | 113 | 4.0 | 12.0 | 0.00 | 0.00 | 0.00 | 72 | 1020.2 |
| 20260830175853 | 81 | 192 | 5.0 | 11.0 | 0.00 | 0.00 | 0.00 | 71 | 1020.3 |
| 20260830175323 | 81 | 149 | 3.0 | 10.0 | 0.00 | 0.00 | 0.00 | 70 | 1020.4 |
| 20260830174814 | 82 | 169 | 5.0 | 11.0 | 0.00 | 0.00 | 0.00 | 68 | 1020.4 |
| 20260830174325 | 82 | 178 | 7.0 | 18.0 | 0.00 | 0.00 | 0.00 | 68 | 1020.5 |
| 20260830173817 | 82 | 132 | 8.0 | 18.0 | 0.00 | 0.00 | 0.00 | 69 | 1020.4 |
| 20260830173329 | 82 | 167 | 5.0 | 11.0 | 0.00 | 0.00 | 0.00 | 70 | 1020.6 |
| 20260830172822 | 81 | 150 | 4.0 | 9.0 | 0.00 | 0.00 | 0.00 | 70 | 1020.7 |
| 20260830172318 | 81 | 228 | 4.0 | 16.0 | 0.00 | 0.00 | 0.00 | 71 | 1020.8 |
| 20260830171828 | 80 | 161 | 6.0 | 16.0 | 0.00 | 0.00 | 0.00 | 70 | 1020.9 |
| 20260830171319 | 81 | 131 | 7.0 | 14.0 | 0.00 | 0.00 | 0.00 | 69 | 1021.0 |
| 20260830170834 | 81 | 148 | 6.0 | 13.0 | 0.00 | 0.00 | 0.00 | 69 | 1021.0 |
| 20260830170326 | 82 | 133 | 5.0 | 13.0 | 0.00 | 0.00 | 0.00 | 68 | 1021.0 |
| 20260830165817 | 82 | 126 | 4.0 | 10.0 | 0.00 | 0.00 | 0.00 | 68 | 1021.0 |
| 20260830165328 | 82 | 188 | 3.0 | 10.0 | 0.00 | 0.00 | 0.00 | 69 | 1021.1 |
| 20260830164819 | 82 | 207 | 5.0 | 11.0 | 0.00 | 0.00 | 0.00 | 69 | 1021.2 |
| 20260830164315 | 82 | 153 | 6.0 | 10.0 | 0.00 | 0.00 | 0.00 | 69 | 1021.1 |
| 20260830163830 | 82 | 217 | 3.0 | 9.0 | 0.00 | 0.00 | 0.00 | 68 | 1021.1 |
| 20260830163321 | 82 | 98 | 4.0 | 9.0 | 0.00 | 0.00 | 0.00 | 66 | 1021.3 |
| 20260830162833 | 83 | 142 | 2.0 | 7.0 | 0.00 | 0.00 | 0.00 | 65 | 1021.2 |
| 20260830162324 | 83 | 267 | 2.0 | 7.0 | 0.00 | 0.00 | 0.00 | 63 | 1021.3 |
| 20260830161816 | 83 | 211 | 2.0 | 6.0 | 0.00 | 0.00 | 0.00 | 63 | 1021.3 |
| 20260830161311 | 83 | 92 | 3.0 | 6.0 | 0.00 | 0.00 | 0.00 | 62 | 1021.4 |
| 20260830160826 | 82 | 184 | 3.0 | 7.0 | 0.00 | 0.00 | 0.00 | 63 | 1021.4 |
| 20260830160321 | 82 | 221 | 3.0 | 7.0 | 0.00 | 0.00 | 0.00 | 63 | 1021.4 |
| 20260830155833 | 82 | 279 | 3.0 | 9.0 | 0.00 | 0.00 | 0.00 | 63 | 1021.4 |
| 20260830155344 | 82 | 128 | 3.0 | 11.0 | 0.00 | 0.00 | 0.00 | 62 | 1021.4 |
| 20260830154814 | 82 | 273 | 4.0 | 9.0 | 0.00 | 0.00 | 0.00 | 63 | 1021.5 |
| 20260830154330 | 82 | 233 | 6.0 | 9.0 | 0.00 | 0.00 | 0.00 | 63 | 1021.5 |
| 20260830153820 | 82 | 130 | 4.0 | 8.0 | 0.00 | 0.00 | 0.00 | 67 | 1021.5 |
| 20260830153332 | 81 | 219 | 3.0 | 6.0 | 0.00 | 0.00 | 0.00 | 67 | 1021.6 |
| 20260830152823 | 81 | 211 | 3.0 | 6.0 | 0.00 | 0.00 | 0.00 | 68 | 1021.8 |
| 20260830152317 | 81 | 266 | 3.0 | 9.0 | 0.00 | 0.00 | 0.00 | 69 | 1021.8 |
| 20260830151813 | 80 | 192 | 4.0 | 9.0 | 0.00 | 0.00 | 0.00 | 68 | 1021.8 |
| 20260830151328 | 80 | 199 | 2.0 | 10.0 | 0.00 | 0.00 | 0.00 | 69 | 1021.9 |
| 20260830150819 | 80 | 177 | 3.0 | 7.0 | 0.00 | 0.00 | 0.00 | 69 | 1021.8 |
| 20260830150314 | 80 | 278 | 3.0 | 7.0 | 0.00 | 0.00 | 0.00 | 69 | 1021.8 |
| 20260830145829 | 79 | 248 | 3.0 | 7.0 | 0.00 | 0.00 | 0.00 | 69 | 1021.9 |
| 20260830144831 | 79 | 234 | 4.0 | 9.0 | 0.00 | 0.00 | 0.00 | 70 | 1022.2 |
| 20260830144322 | 78 | 227 | 3.0 | 9.0 | 0.00 | 0.00 | 0.00 | 70 | 1022.2 |
| 20260830143818 | 78 | 197 | 4.0 | 9.0 | 0.00 | 0.00 | 0.00 | 70 | 1022.3 |
| 20260830143350 | 78 | 300 | 5.0 | 9.0 | 0.00 | 0.00 | 0.00 | 70 | 1022.4 |
| 20260830142821 | 77 | 215 | 3.0 | 8.0 | 0.00 | 0.00 | 0.00 | 71 | 1022.4 |
| 20260830142332 | 76 | 273 | 2.0 | 8.0 | 0.00 | 0.00 | 0.00 | 72 | 1022.4 |
| 20260830141823 | 76 | 175 | 3.0 | 8.0 | 0.00 | 0.00 | 0.00 | 72 | 1022.5 |
| 20260830141315 | 75 | 252 | 4.0 | 8.0 | 0.00 | 0.00 | 0.00 | 73 | 1022.6 |
| 20260830140826 | 75 | 302 | 4.0 | 8.0 | 0.00 | 0.00 | 0.00 | 74 | 1022.7 |
| 20260830140316 | 74 | 163 | 3.0 | 7.0 | 0.00 | 0.00 | 0.00 | 75 | 1022.7 |
| 20260830135828 | 74 | 261 | 3.0 | 7.0 | 0.00 | 0.00 | 0.00 | 76 | 1022.7 |
| 20260830135324 | 73 | 238 | 5.0 | 7.0 | 0.00 | 0.00 | 0.00 | 76 | 1022.7 |
| 20260830134815 | 73 | 202 | 1.0 | 7.0 | 0.00 | 0.00 | 0.00 | 78 | 1022.8 |
| 20260830134346 | 72 | 227 | 2.0 | 7.0 | 0.00 | 0.00 | 0.00 | 78 | 1022.9 |
| 20260830133815 | 72 | 212 | 1.0 | 6.0 | 0.00 | 0.00 | 0.00 | 80 | 1023.0 |
| 20260830133326 | 72 | 223 | 3.0 | 5.0 | 0.00 | 0.00 | 0.00 | 81 | 1023.0 |
| 20260830132818 | 71 | 242 | 2.0 | 5.0 | 0.00 | 0.00 | 0.00 | 83 | 1023.0 |
| 20260830132329 | 71 | 232 | 1.0 | 6.0 | 0.00 | 0.00 | 0.00 | 84 | 1023.1 |
| 20260830131840 | 70 | 250 | 3.0 | 8.0 | 0.00 | 0.00 | 0.00 | 86 | 1023.2 |
| 20260830131351 | 70 | 253 | 4.0 | 8.0 | 0.00 | 0.00 | 0.00 | 87 | 1023.1 |
| 20260830130842 | 69 | 248 | 1.0 | 8.0 | 0.00 | 0.00 | 0.00 | 89 | 1023.2 |
| 20260830130332 | 68 | 269 | 3.0 | 8.0 | 0.00 | 0.00 | 0.00 | 89 | 1023.2 |
| 20260830125824 | 68 | 227 | 3.0 | 4.0 | 0.00 | 0.00 | 0.00 | 90 | 1023.2 |
| 20260830125340 | 68 | 255 | 3.0 | 5.0 | 0.00 | 0.00 | 0.00 | 90 | 1023.3 |
| 20260830124829 | 67 | 261 | 3.0 | 5.0 | 0.00 | 0.00 | 0.00 | 91 | 1023.3 |
| 20260830124324 | 67 | 261 | 2.0 | 5.0 | 0.00 | 0.00 | 0.00 | 91 | 1023.3 |
| 20260830123814 | 67 | 269 | 3.0 | 4.0 | 0.00 | 0.00 | 0.00 | 91 | 1023.3 |
| 20260830123326 | 67 | 289 | 2.0 | 5.0 | 0.00 | 0.00 | 0.00 | 91 | 1023.2 |
| 20260830122837 | 66 | 225 | 3.0 | 6.0 | 0.00 | 0.00 | 0.00 | 91 | 1023.3 |
| 20260830122327 | 66 | 281 | 3.0 | 6.0 | 0.00 | 0.00 | 0.00 | 92 | 1023.3 |
| 20260830121818 | 66 | 249 | 0.0 | 4.0 | 0.00 | 0.00 | 0.00 | 92 | 1023.2 |
| 20260830121329 | 65 | 267 | 1.0 | 4.0 | 0.00 | 0.00 | 0.00 | 92 | 1023.2 |
| 20260830120825 | 65 | 285 | 2.0 | 3.0 | 0.00 | 0.00 | 0.00 | 92 | 1023.3 |
| 20260830120317 | 65 | 263 | 2.0 | 3.0 | 0.00 | 0.00 | 0.00 | 92 | 1023.4 |
| 20260830115828 | 65 | 217 | 1.0 | 6.0 | 0.00 | 0.00 | 0.00 | 92 | 1023.3 |
| 20260830115319 | 64 | 229 | 3.0 | 6.0 | 0.00 | 0.00 | 0.00 | 92 | 1023.3 |
| 20260830114814 | 64 | 266 | 1.0 | 7.0 | 0.00 | 0.00 | 0.00 | 92 | 1023.3 |
| 20260830114348 | 64 | 243 | 2.0 | 7.0 | 0.00 | 0.00 | 0.00 | 92 | 1023.3 |
| 20260830113841 | 64 | 269 | 3.0 | 5.0 | 0.00 | 0.00 | 0.00 | 92 | 1023.3 |
| 20260830113331 | 63 | 221 | 2.0 | 4.0 | 0.00 | 0.00 | 0.00 | 92 | 1023.3 |
| 20260830112823 | 63 | 273 | 2.0 | 6.0 | 0.00 | 0.00 | 0.00 | 92 | 1023.3 |
| 20260830112318 | 63 | 282 | 2.0 | 5.0 | 0.00 | 0.00 | 0.00 | 92 | 1023.4 |
| 20260830111830 | 63 | 259 | 2.0 | 4.0 | 0.00 | 0.00 | 0.00 | 92 | 1023.4 |
| 20260830111345 | 63 | 248 | 3.0 | 4.0 | 0.00 | 0.00 | 0.00 | 92 | 1023.4 |
| 20260830110815 | 62 | 279 | 2.0 | 4.0 | 0.00 | 0.00 | 0.00 | 92 | 1023.4 |
| 20260830110346 | 62 | 250 | 2.0 | 4.0 | 0.00 | 0.00 | 0.00 | 91 | 1023.4 |
| 20260830105815 | 62 | 280 | 2.0 | 3.0 | 0.00 | 0.00 | 0.00 | 91 | 1023.4 |
| 20260830105325 | 62 | 232 | 2.0 | 3.0 | 0.00 | 0.00 | 0.00 | 91 | 1023.3 |
| 20260830104817 | 61 | 257 | 2.0 | 3.0 | 0.00 | 0.00 | 0.00 | 91 | 1023.3 |
| 20260830104328 | 61 | 250 | 2.0 | 3.0 | 0.00 | 0.00 | 0.00 | 91 | 1023.2 |
| 20260830103820 | 61 | 259 | 1.0 | 3.0 | 0.00 | 0.00 | 0.00 | 91 | 1023.2 |
| 20260830103315 | 61 | 254 | 0.0 | 2.0 | 0.00 | 0.00 | 0.00 | 91 | 1023.2 |
| 20260830102826 | 61 | 254 | 1.0 | 2.0 | 0.00 | 0.00 | 0.00 | 91 | 1023.1 |
| 20260830102317 | 61 | 278 | 1.0 | 3.0 | 0.00 | 0.00 | 0.00 | 91 | 1023.1 |
| 20260830101848 | 61 | 276 | 2.0 | 3.0 | 0.00 | 0.00 | 0.00 | 90 | 1023.1 |